HSSS

Khartoum International Airport

Khartoum, Sudan
METAR HSSS 171200Z 36012KT CAVOK 32/00 Q1015 NOSIG
Observed Flight Rules
Dec-17 @ 12:00 UTC (25 minutes ago) Visual Flight Rules
Wind Visibility Clouds
360° at 12 knots 10,000+ meters
  • Clear skies
Temperatures Readings
Current 32°C / 90°F
Dewpoint 0°C / 32°F
Humidity 13%
Altimeter 29.97" Hg
Pressure 1015 hPa
Elevation 380
METAR HSSS 171200Z 36012KT CAVOK 32/00 Q1015 NOSIG
Observed Flight Rules
Dec-17 @ 12:00 UTC
(25 minutes ago)
VFR
Wind Visibility
360° at 12 knots 10,000+ meters
Clouds
  • Clear skies
Temperature Dewpoint
32°C / 90°F 0°C / 32°F
Humidity Altimeter Pressure
13% 29.97" Hg 1015 hPa